Nearby METAR Reports

 

KEVV - Evansville, Indiana, USA
Distance from station: NNE 4mi, 7km
Updated: Thu, 30-Jun-2022 2:54pm CDT
Few Clouds
Few Clouds
 Wind from SW
Wind: SW 10 mph , 17 km/h
Temperature: 91°F , 33°C
Dew Point: 61°F , 16°C
Humidity: 36%
Barometer: 30.05 inHg , 1017.6 hPa
Clouds: Few Clouds
Visibility: 10 miles , 16 km
Cloud details: Few Clouds 7000 ft
2022/06/30 19:54 KEVV 301954Z AUTO 22009KT 10SM FEW070 33/16 A3005 RMK AO2 SLP172 T0333
KEHR - Henderson City, Kentucky, USA
Distance from station: SSW 14mi, 22km
Updated: Thu, 30-Jun-2022 1:56pm CDT
Light rain, Clear
Light rain, Clear
 Wind from calm
Wind: Calm
Temperature: 91°F , 33°C
Heat Index: 93°F , 34°C
Dew Point: 64°F , 18°C
Humidity: 41%
Barometer: 30.08 inHg , 1018.6 hPa
Summary: Light rain
Clouds: Clear
Visibility: 10 miles , 16 km
2022/06/30 18:56 KEHR 301856Z AUTO 00000KT 10SM -RA CLR 33/18 A3008 RMK AO2 RAB47 SLP184 P0000 T03280178
 
KOWB - Owensboro/Davies, Kentucky, USA
Distance from station: SE 29mi, 46km
Updated: Thu, 30-Jun-2022 1:56pm CDT
Mostly cloudy
Mostly cloudy
 Wind from varies
Wind: varies 5 mph , 7 km/h
Temperature: 91°F , 33°C
Heat Index: 96°F , 36°C
Dew Point: 70°F , 21°C
Humidity: 49%
Barometer: 30.08 inHg , 1018.6 hPa
Clouds: Mostly cloudy
Visibility: 10 miles , 16 km
Cloud details: Few Clouds 4900 ft
Mostly cloudy 6000 ft
2022/06/30 18:56 KOWB 301856Z VRB04KT 10SM FEW049 BKN060 33/21 A3008 RMK AO2 SLP182 T03280211
KCUL - Carmi Muni, Illinois, USA
Distance from station: W 31mi, 50km
Updated: Thu, 30-Jun-2022 2:36pm CDT
Clear
Clear
 Wind from SSW
Wind: SSW 8 mph , 13 km/h
Temperature: 91°F , 33°C
Heat Index: 94°F , 34°C
Dew Point: 66°F , 19°C
Humidity: 44%
Barometer: 30.05 inHg , 1017.6 hPa
Clouds: Clear
Visibility: 10 miles , 16 km
2022/06/30 19:36 KCUL 301936Z AUTO 20007KT 10SM CLR 33/19 A3005 RMK AO2
 
KHNB - Huntingburg, Indiana, USA
Distance from station: ENE 37mi, 60km
Updated: Thu, 30-Jun-2022 1:56pm CDT
Partly cloudy
Partly cloudy
 Wind from WSW
Wind: WSW 12 mph , 19 km/h
Temperature: 91°F , 33°C
Heat Index: 94°F , 34°C
Dew Point: 66°F , 19°C
Humidity: 44%
Barometer: 30.09 inHg , 1019 hPa
Clouds: Partly cloudy
Visibility: 10 miles , 16 km
Cloud details: Few Clouds 5500 ft
Partly cloudy 8000 ft
2022/06/30 18:56 KHNB 301856Z AUTO 24010KT 10SM FEW055 SCT080 33/19 A3009 RMK AO2 SLP183 T03330194
KKY8 - Lewisport, Kentucky, USA
Distance from station: E 39mi, 62km
Updated: Thu, 30-Jun-2022 2:35pm CDT
Few Clouds
Few Clouds
 Wind from varies
Wind: varies 5 mph , 7 km/h
Temperature: 91°F , 33°C
Heat Index: 100°F , 38°C
Dew Point: 73°F , 23°C
Humidity: 56%
Barometer: 30.06 inHg , 1017.9 hPa
Clouds: Few Clouds
Visibility: 10 miles , 16 km
Cloud details: Few Clouds 7000 ft
Few Clouds 9000 ft
2022/06/30 19:35 KKY8 301935Z AUTO VRB04KT 10SM FEW070 FEW090 33/23 A3006 RMK A01
 
KAJG - Mount Carmel, Illinois, USA
Distance from station: NNW 44mi, 71km
Updated: Thu, 30-Jun-2022 2:35pm CDT
Clear
Clear
 Wind from SSW
Wind: SSW 13 mph , 20 km/h, Gust: 16 mph , 26 km/h
Temperature: 91°F , 33°C
Dew Point: 63°F , 17°C
Humidity: 38%
Barometer: 30.05 inHg , 1017.6 hPa
Clouds: Clear
Visibility: 10 miles , 16 km
2022/06/30 19:35 KAJG 301935Z AUTO 20011G14KT 10SM CLR 33/17 A3005 RMK AO2 T03250170
K2I0 - Madisonville, Kentucky, USA
Distance from station: S 45mi, 73km
Updated: Thu, 30-Jun-2022 2:35pm CDT
Partly cloudy
Partly cloudy
 Wind from SSW
Wind: SSW 3 mph , 6 km/h
Temperature: 93°F , 34°C
Heat Index: 96°F , 36°C
Dew Point: 66°F , 19°C
Humidity: 41%
Barometer: 30.07 inHg , 1018.3 hPa
Clouds: Partly cloudy
Visibility: 10 miles , 16 km
Cloud details: Partly cloudy 5000 ft
Partly cloudy 7000 ft
2022/06/30 19:35 K2I0 301935Z AUTO 21003KT 10SM SCT050 SCT070 34/19 A3007 RMK AO2 T03370185
Flag Counter